sensor_id;sensor_type;location;lat;lon;timestamp;P1;durP1;ratioP1;P2;durP2;ratioP2
25915;SDS011;13719;48.188;11.618;2022-08-19T00:00:04;1.20;;;0.50;;
25915;SDS011;13719;48.188;11.618;2022-08-19T00:02:33;0.28;;;0.20;;
25915;SDS011;13719;48.188;11.618;2022-08-19T00:05:03;1.45;;;0.60;;
25915;SDS011;13719;48.188;11.618;2022-08-19T00:07:31;1.02;;;0.82;;
25915;SDS011;13719;48.188;11.618;2022-08-19T00:09:59;0.50;;;0.38;;
25915;SDS011;13719;48.188;11.618;2022-08-19T00:12:28;0.70;;;0.32;;
25915;SDS011;13719;48.188;11.618;2022-08-19T00:14:56;0.93;;;0.57;;
25915;SDS011;13719;48.188;11.618;2022-08-19T00:17:26;0.17;;;0.13;;
25915;SDS011;13719;48.188;11.618;2022-08-19T00:19:54;0.52;;;0.40;;
25915;SDS011;13719;48.188;11.618;2022-08-19T00:22:23;0.38;;;0.35;;
25915;SDS011;13719;48.188;11.618;2022-08-19T00:24:53;1.55;;;0.70;;
25915;SDS011;13719;48.188;11.618;2022-08-19T00:27:22;0.30;;;0.30;;
25915;SDS011;13719;48.188;11.618;2022-08-19T00:29:52;0.38;;;0.32;;
25915;SDS011;13719;48.188;11.618;2022-08-19T00:32:20;0.60;;;0.43;;
25915;SDS011;13719;48.188;11.618;2022-08-19T00:34:50;0.75;;;0.60;;
25915;SDS011;13719;48.188;11.618;2022-08-19T00:37:19;1.00;;;0.60;;
25915;SDS011;13719;48.188;11.618;2022-08-19T00:39:49;1.20;;;0.60;;
25915;SDS011;13719;48.188;11.618;2022-08-19T00:42:18;0.93;;;0.45;;
25915;SDS011;13719;48.188;11.618;2022-08-19T00:44:47;1.65;;;1.10;;
25915;SDS011;13719;48.188;11.618;2022-08-19T00:47:16;1.33;;;0.88;;
25915;SDS011;13719;48.188;11.618;2022-08-19T00:49:47;0.75;;;0.47;;
25915;SDS011;13719;48.188;11.618;2022-08-19T00:52:21;1.48;;;0.73;;
25915;SDS011;13719;48.188;11.618;2022-08-19T00:54:50;0.73;;;0.70;;
25915;SDS011;13719;48.188;11.618;2022-08-19T00:57:22;2.30;;;1.33;;
25915;SDS011;13719;48.188;11.618;2022-08-19T00:59:52;0.82;;;0.60;;
25915;SDS011;13719;48.188;11.618;2022-08-19T01:02:28;1.55;;;0.45;;
25915;SDS011;13719;48.188;11.618;2022-08-19T01:04:57;0.63;;;0.55;;
25915;SDS011;13719;48.188;11.618;2022-08-19T01:07:28;1.20;;;0.80;;
25915;SDS011;13719;48.188;11.618;2022-08-19T01:10:04;1.92;;;1.20;;
25915;SDS011;13719;48.188;11.618;2022-08-19T01:12:33;0.47;;;0.40;;
25915;SDS011;13719;48.188;11.618;2022-08-19T01:15:02;0.98;;;0.80;;
25915;SDS011;13719;48.188;11.618;2022-08-19T01:17:31;1.58;;;1.30;;
25915;SDS011;13719;48.188;11.618;2022-08-19T01:19:59;0.65;;;0.60;;
25915;SDS011;13719;48.188;11.618;2022-08-19T01:22:29;1.77;;;0.80;;
25915;SDS011;13719;48.188;11.618;2022-08-19T01:24:59;0.85;;;0.60;;
25915;SDS011;13719;48.188;11.618;2022-08-19T01:27:36;2.22;;;0.98;;
25915;SDS011;13719;48.188;11.618;2022-08-19T01:30:10;1.80;;;1.15;;
25915;SDS011;13719;48.188;11.618;2022-08-19T01:32:39;1.70;;;1.05;;
25915;SDS011;13719;48.188;11.618;2022-08-19T01:35:09;1.13;;;0.63;;
25915;SDS011;13719;48.188;11.618;2022-08-19T01:37:43;1.90;;;0.75;;
25915;SDS011;13719;48.188;11.618;2022-08-19T01:40:11;4.78;;;1.40;;
25915;SDS011;13719;48.188;11.618;2022-08-19T01:42:40;1.58;;;1.10;;
25915;SDS011;13719;48.188;11.618;2022-08-19T01:45:09;3.97;;;1.40;;
25915;SDS011;13719;48.188;11.618;2022-08-19T01:47:37;1.85;;;1.00;;
25915;SDS011;13719;48.188;11.618;2022-08-19T01:50:07;2.05;;;1.00;;
25915;SDS011;13719;48.188;11.618;2022-08-19T01:52:36;1.45;;;0.90;;
25915;SDS011;13719;48.188;11.618;2022-08-19T01:55:07;2.80;;;1.55;;
25915;SDS011;13719;48.188;11.618;2022-08-19T01:57:36;2.05;;;0.93;;
25915;SDS011;13719;48.188;11.618;2022-08-19T02:00:06;1.52;;;1.05;;
25915;SDS011;13719;48.188;11.618;2022-08-19T02:02:35;2.10;;;1.00;;
25915;SDS011;13719;48.188;11.618;2022-08-19T02:05:04;1.25;;;0.77;;
25915;SDS011;13719;48.188;11.618;2022-08-19T02:07:36;0.93;;;0.68;;
25915;SDS011;13719;48.188;11.618;2022-08-19T02:10:10;0.82;;;0.35;;
25915;SDS011;13719;48.188;11.618;2022-08-19T02:12:41;2.17;;;1.35;;
25915;SDS011;13719;48.188;11.618;2022-08-19T02:15:11;1.08;;;0.82;;
25915;SDS011;13719;48.188;11.618;2022-08-19T02:17:39;2.15;;;0.80;;
25915;SDS011;13719;48.188;11.618;2022-08-19T02:20:08;1.52;;;0.77;;
25915;SDS011;13719;48.188;11.618;2022-08-19T02:22:37;1.98;;;0.85;;
25915;SDS011;13719;48.188;11.618;2022-08-19T02:25:09;1.58;;;1.10;;
25915;SDS011;13719;48.188;11.618;2022-08-19T02:27:38;1.35;;;0.98;;
25915;SDS011;13719;48.188;11.618;2022-08-19T02:30:08;1.05;;;0.88;;
25915;SDS011;13719;48.188;11.618;2022-08-19T02:32:39;1.35;;;0.93;;
25915;SDS011;13719;48.188;11.618;2022-08-19T02:35:20;2.33;;;1.17;;
25915;SDS011;13719;48.188;11.618;2022-08-19T02:37:48;1.02;;;0.88;;
25915;SDS011;13719;48.188;11.618;2022-08-19T02:40:36;1.95;;;1.10;;
25915;SDS011;13719;48.188;11.618;2022-08-19T02:43:05;1.00;;;0.90;;
25915;SDS011;13719;48.188;11.618;2022-08-19T02:45:35;1.35;;;1.25;;
25915;SDS011;13719;48.188;11.618;2022-08-19T02:48:07;2.15;;;0.90;;
25915;SDS011;13719;48.188;11.618;2022-08-19T02:50:47;1.75;;;1.15;;
25915;SDS011;13719;48.188;11.618;2022-08-19T02:53:21;1.15;;;0.60;;
25915;SDS011;13719;48.188;11.618;2022-08-19T02:55:51;0.93;;;0.65;;
25915;SDS011;13719;48.188;11.618;2022-08-19T02:58:20;1.38;;;1.02;;
25915;SDS011;13719;48.188;11.618;2022-08-19T03:00:53;0.50;;;0.30;;
25915;SDS011;13719;48.188;11.618;2022-08-19T03:03:22;2.30;;;1.15;;
25915;SDS011;13719;48.188;11.618;2022-08-19T03:05:50;1.73;;;0.75;;
25915;SDS011;13719;48.188;11.618;2022-08-19T03:08:22;1.15;;;0.63;;
25915;SDS011;13719;48.188;11.618;2022-08-19T03:10:53;2.13;;;0.90;;
25915;SDS011;13719;48.188;11.618;2022-08-19T03:13:21;0.68;;;0.45;;
25915;SDS011;13719;48.188;11.618;2022-08-19T03:15:50;1.77;;;0.80;;
25915;SDS011;13719;48.188;11.618;2022-08-19T03:18:19;1.20;;;0.85;;
25915;SDS011;13719;48.188;11.618;2022-08-19T03:20:49;1.27;;;1.02;;
25915;SDS011;13719;48.188;11.618;2022-08-19T03:23:19;2.40;;;1.92;;
25915;SDS011;13719;48.188;11.618;2022-08-19T03:25:47;0.75;;;0.55;;
25915;SDS011;13719;48.188;11.618;2022-08-19T03:28:38;0.35;;;0.30;;
25915;SDS011;13719;48.188;11.618;2022-08-19T03:31:07;1.30;;;0.63;;
25915;SDS011;13719;48.188;11.618;2022-08-19T03:33:55;1.20;;;0.80;;
25915;SDS011;13719;48.188;11.618;2022-08-19T03:36:25;1.02;;;0.73;;
25915;SDS011;13719;48.188;11.618;2022-08-19T03:38:58;3.58;;;1.05;;
25915;SDS011;13719;48.188;11.618;2022-08-19T03:41:27;2.17;;;0.93;;
25915;SDS011;13719;48.188;11.618;2022-08-19T03:44:12;1.08;;;0.63;;
25915;SDS011;13719;48.188;11.618;2022-08-19T03:46:44;1.90;;;0.88;;
25915;SDS011;13719;48.188;11.618;2022-08-19T03:49:12;1.08;;;0.70;;
25915;SDS011;13719;48.188;11.618;2022-08-19T03:51:43;1.40;;;0.65;;
25915;SDS011;13719;48.188;11.618;2022-08-19T03:54:12;1.33;;;0.80;;
25915;SDS011;13719;48.188;11.618;2022-08-19T03:56:41;0.73;;;0.50;;
25915;SDS011;13719;48.188;11.618;2022-08-19T03:59:10;0.50;;;0.50;;
25915;SDS011;13719;48.188;11.618;2022-08-19T04:01:40;1.60;;;0.63;;
25915;SDS011;13719;48.188;11.618;2022-08-19T04:04:09;1.08;;;0.68;;
25915;SDS011;13719;48.188;11.618;2022-08-19T04:06:38;0.47;;;0.32;;
25915;SDS011;13719;48.188;11.618;2022-08-19T04:09:08;2.88;;;1.00;;
25915;SDS011;13719;48.188;11.618;2022-08-19T04:11:37;1.23;;;0.60;;
25915;SDS011;13719;48.188;11.618;2022-08-19T04:14:10;2.13;;;0.98;;
25915;SDS011;13719;48.188;11.618;2022-08-19T04:16:38;2.28;;;0.70;;
25915;SDS011;13719;48.188;11.618;2022-08-19T04:19:08;1.48;;;0.93;;
25915;SDS011;13719;48.188;11.618;2022-08-19T04:21:37;1.13;;;0.82;;
25915;SDS011;13719;48.188;11.618;2022-08-19T04:24:05;2.25;;;1.25;;
25915;SDS011;13719;48.188;11.618;2022-08-19T04:26:34;1.15;;;0.68;;
25915;SDS011;13719;48.188;11.618;2022-08-19T04:29:04;0.98;;;0.75;;
25915;SDS011;13719;48.188;11.618;2022-08-19T04:31:38;2.97;;;0.93;;
25915;SDS011;13719;48.188;11.618;2022-08-19T04:34:09;0.80;;;0.68;;
25915;SDS011;13719;48.188;11.618;2022-08-19T04:36:38;0.88;;;0.73;;
25915;SDS011;13719;48.188;11.618;2022-08-19T04:39:08;2.70;;;0.93;;
25915;SDS011;13719;48.188;11.618;2022-08-19T04:41:37;1.50;;;0.95;;
25915;SDS011;13719;48.188;11.618;2022-08-19T04:44:23;2.10;;;1.25;;
25915;SDS011;13719;48.188;11.618;2022-08-19T04:46:52;2.55;;;1.20;;
25915;SDS011;13719;48.188;11.618;2022-08-19T04:49:22;0.70;;;0.65;;
25915;SDS011;13719;48.188;11.618;2022-08-19T04:51:51;2.17;;;0.82;;
25915;SDS011;13719;48.188;11.618;2022-08-19T04:54:21;0.95;;;0.70;;
25915;SDS011;13719;48.188;11.618;2022-08-19T04:57:04;1.38;;;0.85;;
25915;SDS011;13719;48.188;11.618;2022-08-19T04:59:33;2.10;;;1.17;;
25915;SDS011;13719;48.188;11.618;2022-08-19T05:02:02;3.20;;;1.15;;
25915;SDS011;13719;48.188;11.618;2022-08-19T05:04:32;2.33;;;0.93;;
25915;SDS011;13719;48.188;11.618;2022-08-19T05:07:01;1.70;;;1.02;;
25915;SDS011;13719;48.188;11.618;2022-08-19T05:09:30;2.25;;;1.20;;
25915;SDS011;13719;48.188;11.618;2022-08-19T05:12:18;0.75;;;0.60;;
25915;SDS011;13719;48.188;11.618;2022-08-19T05:14:51;2.45;;;0.93;;
25915;SDS011;13719;48.188;11.618;2022-08-19T05:17:20;1.50;;;0.95;;
25915;SDS011;13719;48.188;11.618;2022-08-19T05:19:54;2.38;;;0.90;;
25915;SDS011;13719;48.188;11.618;2022-08-19T05:22:41;1.90;;;1.08;;
25915;SDS011;13719;48.188;11.618;2022-08-19T05:25:10;3.03;;;0.98;;
25915;SDS011;13719;48.188;11.618;2022-08-19T05:27:39;1.25;;;0.93;;
25915;SDS011;13719;48.188;11.618;2022-08-19T05:30:08;1.88;;;0.80;;
25915;SDS011;13719;48.188;11.618;2022-08-19T05:32:37;1.33;;;0.95;;
25915;SDS011;13719;48.188;11.618;2022-08-19T05:35:07;1.30;;;0.85;;
25915;SDS011;13719;48.188;11.618;2022-08-19T05:37:36;2.03;;;1.05;;
25915;SDS011;13719;48.188;11.618;2022-08-19T05:40:07;3.38;;;1.33;;
25915;SDS011;13719;48.188;11.618;2022-08-19T05:42:36;2.90;;;1.02;;
25915;SDS011;13719;48.188;11.618;2022-08-19T05:45:04;1.63;;;0.73;;
25915;SDS011;13719;48.188;11.618;2022-08-19T05:47:33;1.63;;;0.98;;
25915;SDS011;13719;48.188;11.618;2022-08-19T05:50:09;1.17;;;1.05;;
25915;SDS011;13719;48.188;11.618;2022-08-19T05:52:37;4.35;;;1.30;;
25915;SDS011;13719;48.188;11.618;2022-08-19T05:55:11;1.63;;;0.77;;
25915;SDS011;13719;48.188;11.618;2022-08-19T05:57:39;1.95;;;1.08;;
25915;SDS011;13719;48.188;11.618;2022-08-19T06:00:08;0.95;;;0.60;;
25915;SDS011;13719;48.188;11.618;2022-08-19T06:02:37;1.83;;;1.15;;
25915;SDS011;13719;48.188;11.618;2022-08-19T06:05:07;3.55;;;1.40;;
25915;SDS011;13719;48.188;11.618;2022-08-19T06:07:38;1.15;;;0.90;;
25915;SDS011;13719;48.188;11.618;2022-08-19T06:10:07;1.83;;;0.90;;
25915;SDS011;13719;48.188;11.618;2022-08-19T06:12:36;2.15;;;0.90;;
25915;SDS011;13719;48.188;11.618;2022-08-19T06:15:06;2.63;;;1.13;;
25915;SDS011;13719;48.188;11.618;2022-08-19T06:17:35;4.10;;;1.65;;
25915;SDS011;13719;48.188;11.618;2022-08-19T06:20:03;1.98;;;1.15;;
25915;SDS011;13719;48.188;11.618;2022-08-19T06:22:35;1.70;;;1.30;;
25915;SDS011;13719;48.188;11.618;2022-08-19T06:25:06;3.20;;;1.30;;
25915;SDS011;13719;48.188;11.618;2022-08-19T06:27:35;2.03;;;0.90;;
25915;SDS011;13719;48.188;11.618;2022-08-19T06:30:18;0.98;;;0.90;;
25915;SDS011;13719;48.188;11.618;2022-08-19T06:32:46;3.05;;;1.50;;
25915;SDS011;13719;48.188;11.618;2022-08-19T06:35:16;2.78;;;1.25;;
25915;SDS011;13719;48.188;11.618;2022-08-19T06:37:45;4.93;;;1.77;;
25915;SDS011;13719;48.188;11.618;2022-08-19T06:40:15;1.83;;;1.08;;
25915;SDS011;13719;48.188;11.618;2022-08-19T06:42:43;1.40;;;1.30;;
25915;SDS011;13719;48.188;11.618;2022-08-19T06:45:20;1.30;;;0.63;;
25915;SDS011;13719;48.188;11.618;2022-08-19T06:47:59;2.03;;;1.10;;
25915;SDS011;13719;48.188;11.618;2022-08-19T06:50:28;2.78;;;0.95;;
25915;SDS011;13719;48.188;11.618;2022-08-19T06:52:56;1.13;;;0.90;;
25915;SDS011;13719;48.188;11.618;2022-08-19T06:55:31;2.33;;;1.17;;
25915;SDS011;13719;48.188;11.618;2022-08-19T06:58:01;2.22;;;1.55;;
25915;SDS011;13719;48.188;11.618;2022-08-19T07:00:30;3.15;;;1.17;;
25915;SDS011;13719;48.188;11.618;2022-08-19T07:02:58;4.13;;;1.38;;
25915;SDS011;13719;48.188;11.618;2022-08-19T07:05:37;4.80;;;2.10;;
25915;SDS011;13719;48.188;11.618;2022-08-19T07:08:10;2.47;;;1.67;;
25915;SDS011;13719;48.188;11.618;2022-08-19T07:10:43;7.95;;;1.85;;
25915;SDS011;13719;48.188;11.618;2022-08-19T07:13:12;2.80;;;1.52;;
25915;SDS011;13719;48.188;11.618;2022-08-19T07:15:40;3.22;;;1.55;;
25915;SDS011;13719;48.188;11.618;2022-08-19T07:18:09;1.88;;;1.05;;
25915;SDS011;13719;48.188;11.618;2022-08-19T07:20:37;3.13;;;1.65;;
25915;SDS011;13719;48.188;11.618;2022-08-19T07:23:07;3.33;;;1.58;;
25915;SDS011;13719;48.188;11.618;2022-08-19T07:25:43;3.50;;;1.58;;
25915;SDS011;13719;48.188;11.618;2022-08-19T07:28:18;2.97;;;1.85;;
25915;SDS011;13719;48.188;11.618;2022-08-19T07:30:49;3.97;;;2.03;;
25915;SDS011;13719;48.188;11.618;2022-08-19T07:33:18;2.53;;;1.65;;
25915;SDS011;13719;48.188;11.618;2022-08-19T07:35:46;3.58;;;1.58;;
25915;SDS011;13719;48.188;11.618;2022-08-19T07:38:16;6.57;;;2.67;;
25915;SDS011;13719;48.188;11.618;2022-08-19T07:40:45;4.97;;;2.45;;
25915;SDS011;13719;48.188;11.618;2022-08-19T07:43:14;4.93;;;1.98;;
25915;SDS011;13719;48.188;11.618;2022-08-19T07:45:48;6.55;;;3.17;;
25915;SDS011;13719;48.188;11.618;2022-08-19T07:48:17;4.38;;;2.20;;
25915;SDS011;13719;48.188;11.618;2022-08-19T07:50:46;4.07;;;2.25;;
25915;SDS011;13719;48.188;11.618;2022-08-19T07:53:14;4.47;;;2.70;;
25915;SDS011;13719;48.188;11.618;2022-08-19T07:55:43;4.35;;;2.10;;
25915;SDS011;13719;48.188;11.618;2022-08-19T07:58:15;7.28;;;3.22;;
25915;SDS011;13719;48.188;11.618;2022-08-19T08:00:44;5.10;;;2.42;;
25915;SDS011;13719;48.188;11.618;2022-08-19T08:03:13;2.55;;;1.60;;
25915;SDS011;13719;48.188;11.618;2022-08-19T08:05:42;6.75;;;3.10;;
25915;SDS011;13719;48.188;11.618;2022-08-19T08:08:36;10.23;;;3.85;;
25915;SDS011;13719;48.188;11.618;2022-08-19T08:11:23;5.40;;;2.20;;
25915;SDS011;13719;48.188;11.618;2022-08-19T08:13:56;5.70;;;3.03;;
25915;SDS011;13719;48.188;11.618;2022-08-19T08:16:26;3.50;;;2.20;;
25915;SDS011;13719;48.188;11.618;2022-08-19T08:18:57;5.28;;;2.67;;
25915;SDS011;13719;48.188;11.618;2022-08-19T08:21:26;4.55;;;2.63;;
25915;SDS011;13719;48.188;11.618;2022-08-19T08:23:55;9.07;;;4.10;;
25915;SDS011;13719;48.188;11.618;2022-08-19T08:26:28;4.72;;;2.17;;
25915;SDS011;13719;48.188;11.618;2022-08-19T08:29:01;8.38;;;3.15;;
25915;SDS011;13719;48.188;11.618;2022-08-19T08:31:39;4.13;;;2.30;;
25915;SDS011;13719;48.188;11.618;2022-08-19T08:34:07;7.00;;;2.88;;
25915;SDS011;13719;48.188;11.618;2022-08-19T08:36:36;4.72;;;3.03;;
25915;SDS011;13719;48.188;11.618;2022-08-19T08:39:08;6.53;;;3.00;;
25915;SDS011;13719;48.188;11.618;2022-08-19T08:41:37;6.57;;;3.42;;
25915;SDS011;13719;48.188;11.618;2022-08-19T08:44:12;7.70;;;2.75;;
25915;SDS011;13719;48.188;11.618;2022-08-19T08:46:46;4.32;;;2.80;;
25915;SDS011;13719;48.188;11.618;2022-08-19T08:49:22;4.03;;;2.35;;
25915;SDS011;13719;48.188;11.618;2022-08-19T08:51:52;6.95;;;3.47;;
25915;SDS011;13719;48.188;11.618;2022-08-19T08:54:27;3.27;;;2.10;;
25915;SDS011;13719;48.188;11.618;2022-08-19T08:57:00;4.35;;;2.10;;
25915;SDS011;13719;48.188;11.618;2022-08-19T08:59:31;5.35;;;3.60;;
25915;SDS011;13719;48.188;11.618;2022-08-19T09:02:01;7.07;;;2.78;;
25915;SDS011;13719;48.188;11.618;2022-08-19T09:04:30;8.07;;;2.30;;
25915;SDS011;13719;48.188;11.618;2022-08-19T09:07:01;5.93;;;2.47;;
25915;SDS011;13719;48.188;11.618;2022-08-19T09:12:24;5.97;;;3.35;;
25915;SDS011;13719;48.188;11.618;2022-08-19T09:14:56;5.45;;;2.60;;
25915;SDS011;13719;48.188;11.618;2022-08-19T09:17:27;5.93;;;2.67;;
25915;SDS011;13719;48.188;11.618;2022-08-19T09:20:03;7.70;;;2.90;;
25915;SDS011;13719;48.188;11.618;2022-08-19T09:22:35;4.95;;;2.60;;
25915;SDS011;13719;48.188;11.618;2022-08-19T09:25:06;9.38;;;2.70;;
25915;SDS011;13719;48.188;11.618;2022-08-19T09:27:35;7.15;;;2.50;;
25915;SDS011;13719;48.188;11.618;2022-08-19T09:30:12;5.78;;;3.70;;
25915;SDS011;13719;48.188;11.618;2022-08-19T09:32:41;8.05;;;2.85;;
25915;SDS011;13719;48.188;11.618;2022-08-19T09:35:10;4.38;;;2.22;;
25915;SDS011;13719;48.188;11.618;2022-08-19T09:37:40;4.55;;;3.22;;
25915;SDS011;13719;48.188;11.618;2022-08-19T09:40:11;5.35;;;2.72;;
25915;SDS011;13719;48.188;11.618;2022-08-19T09:42:41;6.68;;;2.38;;
25915;SDS011;13719;48.188;11.618;2022-08-19T09:45:19;8.05;;;2.42;;
25915;SDS011;13719;48.188;11.618;2022-08-19T09:47:49;4.82;;;2.58;;
25915;SDS011;13719;48.188;11.618;2022-08-19T09:50:20;7.55;;;2.78;;
25915;SDS011;13719;48.188;11.618;2022-08-19T09:52:50;5.47;;;2.40;;
25915;SDS011;13719;48.188;11.618;2022-08-19T09:55:24;5.70;;;2.53;;
25915;SDS011;13719;48.188;11.618;2022-08-19T09:57:58;5.60;;;2.60;;
25915;SDS011;13719;48.188;11.618;2022-08-19T10:00:29;4.25;;;2.25;;
25915;SDS011;13719;48.188;11.618;2022-08-19T10:02:58;6.30;;;2.58;;
25915;SDS011;13719;48.188;11.618;2022-08-19T10:05:28;6.15;;;2.85;;
25915;SDS011;13719;48.188;11.618;2022-08-19T10:08:20;7.25;;;2.60;;
25915;SDS011;13719;48.188;11.618;2022-08-19T10:10:52;5.85;;;2.53;;
25915;SDS011;13719;48.188;11.618;2022-08-19T10:13:22;4.88;;;2.70;;
25915;SDS011;13719;48.188;11.618;2022-08-19T10:15:54;9.90;;;3.70;;
25915;SDS011;13719;48.188;11.618;2022-08-19T10:18:23;4.38;;;3.00;;
25915;SDS011;13719;48.188;11.618;2022-08-19T10:21:01;5.55;;;2.78;;
25915;SDS011;13719;48.188;11.618;2022-08-19T10:23:37;5.03;;;2.83;;
25915;SDS011;13719;48.188;11.618;2022-08-19T10:26:06;3.90;;;3.08;;
25915;SDS011;13719;48.188;11.618;2022-08-19T10:28:35;6.13;;;2.80;;
25915;SDS011;13719;48.188;11.618;2022-08-19T10:31:12;6.65;;;2.97;;
25915;SDS011;13719;48.188;11.618;2022-08-19T10:33:44;4.03;;;2.30;;
25915;SDS011;13719;48.188;11.618;2022-08-19T10:36:19;6.57;;;2.80;;
25915;SDS011;13719;48.188;11.618;2022-08-19T10:38:49;8.20;;;2.80;;
25915;SDS011;13719;48.188;11.618;2022-08-19T10:41:22;3.65;;;2.33;;
25915;SDS011;13719;48.188;11.618;2022-08-19T10:43:51;4.55;;;2.35;;
25915;SDS011;13719;48.188;11.618;2022-08-19T10:46:22;5.88;;;2.97;;
25915;SDS011;13719;48.188;11.618;2022-08-19T10:48:51;2.65;;;1.98;;
25915;SDS011;13719;48.188;11.618;2022-08-19T10:51:20;6.25;;;1.67;;
25915;SDS011;13719;48.188;11.618;2022-08-19T10:54:13;7.72;;;2.53;;
25915;SDS011;13719;48.188;11.618;2022-08-19T10:56:41;5.28;;;2.78;;
25915;SDS011;13719;48.188;11.618;2022-08-19T10:59:18;5.25;;;1.55;;
25915;SDS011;13719;48.188;11.618;2022-08-19T11:01:53;4.88;;;1.63;;
25915;SDS011;13719;48.188;11.618;2022-08-19T11:04:22;4.30;;;2.10;;
25915;SDS011;13719;48.188;11.618;2022-08-19T11:06:55;3.35;;;2.17;;
25915;SDS011;13719;48.188;11.618;2022-08-19T11:09:25;2.90;;;1.65;;
25915;SDS011;13719;48.188;11.618;2022-08-19T11:11:59;4.22;;;1.92;;
25915;SDS011;13719;48.188;11.618;2022-08-19T11:14:30;4.00;;;2.08;;
25915;SDS011;13719;48.188;11.618;2022-08-19T11:17:02;2.55;;;1.35;;
25915;SDS011;13719;48.188;11.618;2022-08-19T11:19:30;4.55;;;2.55;;
25915;SDS011;13719;48.188;11.618;2022-08-19T11:21:59;3.40;;;1.45;;
25915;SDS011;13719;48.188;11.618;2022-08-19T11:24:29;5.60;;;2.40;;
25915;SDS011;13719;48.188;11.618;2022-08-19T11:27:02;3.55;;;2.08;;
25915;SDS011;13719;48.188;11.618;2022-08-19T11:29:31;3.80;;;1.83;;
25915;SDS011;13719;48.188;11.618;2022-08-19T11:32:04;4.05;;;1.90;;
25915;SDS011;13719;48.188;11.618;2022-08-19T11:34:33;3.03;;;1.45;;
25915;SDS011;13719;48.188;11.618;2022-08-19T11:37:02;5.25;;;2.28;;
25915;SDS011;13719;48.188;11.618;2022-08-19T11:39:32;3.83;;;1.35;;
25915;SDS011;13719;48.188;11.618;2022-08-19T11:42:01;2.25;;;1.25;;
25915;SDS011;13719;48.188;11.618;2022-08-19T11:44:50;1.52;;;0.80;;
25915;SDS011;13719;48.188;11.618;2022-08-19T11:47:20;2.05;;;1.00;;
25915;SDS011;13719;48.188;11.618;2022-08-19T11:49:49;1.95;;;1.00;;
25915;SDS011;13719;48.188;11.618;2022-08-19T11:52:19;1.20;;;0.80;;
25915;SDS011;13719;48.188;11.618;2022-08-19T11:54:47;1.05;;;0.70;;
25915;SDS011;13719;48.188;11.618;2022-08-19T11:57:16;0.70;;;0.43;;
25915;SDS011;13719;48.188;11.618;2022-08-19T11:59:49;0.30;;;0.30;;
25915;SDS011;13719;48.188;11.618;2022-08-19T12:02:17;0.47;;;0.45;;
25915;SDS011;13719;48.188;11.618;2022-08-19T12:04:48;0.55;;;0.40;;
25915;SDS011;13719;48.188;11.618;2022-08-19T12:07:16;0.55;;;0.55;;
25915;SDS011;13719;48.188;11.618;2022-08-19T12:09:45;1.10;;;0.40;;
25915;SDS011;13719;48.188;11.618;2022-08-19T12:12:14;0.40;;;0.32;;
25915;SDS011;13719;48.188;11.618;2022-08-19T12:14:42;0.25;;;0.25;;
25915;SDS011;13719;48.188;11.618;2022-08-19T12:17:12;0.20;;;0.20;;
25915;SDS011;13719;48.188;11.618;2022-08-19T12:19:41;0.50;;;0.30;;
25915;SDS011;13719;48.188;11.618;2022-08-19T12:22:12;0.95;;;0.60;;
25915;SDS011;13719;48.188;11.618;2022-08-19T12:24:40;0.68;;;0.43;;
25915;SDS011;13719;48.188;11.618;2022-08-19T12:27:08;0.60;;;0.40;;
25915;SDS011;13719;48.188;11.618;2022-08-19T12:29:38;0.82;;;0.43;;
25915;SDS011;13719;48.188;11.618;2022-08-19T12:32:07;0.63;;;0.45;;
25915;SDS011;13719;48.188;11.618;2022-08-19T12:34:37;0.60;;;0.22;;
25915;SDS011;13719;48.188;11.618;2022-08-19T12:37:06;1.00;;;0.32;;
25915;SDS011;13719;48.188;11.618;2022-08-19T12:39:38;0.35;;;0.17;;
25915;SDS011;13719;48.188;11.618;2022-08-19T12:42:07;0.30;;;0.30;;
25915;SDS011;13719;48.188;11.618;2022-08-19T12:44:36;1.27;;;0.63;;
25915;SDS011;13719;48.188;11.618;2022-08-19T12:47:08;0.30;;;0.30;;
25915;SDS011;13719;48.188;11.618;2022-08-19T12:49:36;1.00;;;0.95;;
25915;SDS011;13719;48.188;11.618;2022-08-19T12:52:20;0.63;;;0.40;;
25915;SDS011;13719;48.188;11.618;2022-08-19T12:54:51;0.40;;;0.30;;
25915;SDS011;13719;48.188;11.618;2022-08-19T12:57:21;0.10;;;0.10;;
25915;SDS011;13719;48.188;11.618;2022-08-19T12:59:57;0.10;;;0.10;;
25915;SDS011;13719;48.188;11.618;2022-08-19T13:02:26;0.20;;;0.20;;
25915;SDS011;13719;48.188;11.618;2022-08-19T13:04:54;0.15;;;0.13;;
25915;SDS011;13719;48.188;11.618;2022-08-19T13:07:24;0.10;;;0.10;;
25915;SDS011;13719;48.188;11.618;2022-08-19T13:09:54;0.22;;;0.22;;
25915;SDS011;13719;48.188;11.618;2022-08-19T13:12:24;0.15;;;0.13;;
25915;SDS011;13719;48.188;11.618;2022-08-19T13:14:52;0.50;;;0.28;;
25915;SDS011;13719;48.188;11.618;2022-08-19T13:17:21;0.45;;;0.38;;
25915;SDS011;13719;48.188;11.618;2022-08-19T13:19:50;0.30;;;0.30;;
25915;SDS011;13719;48.188;11.618;2022-08-19T13:22:19;0.43;;;0.38;;
25915;SDS011;13719;48.188;11.618;2022-08-19T13:24:48;0.75;;;0.57;;
25915;SDS011;13719;48.188;11.618;2022-08-19T13:27:18;0.10;;;0.10;;
25915;SDS011;13719;48.188;11.618;2022-08-19T13:29:47;0.32;;;0.32;;
25915;SDS011;13719;48.188;11.618;2022-08-19T13:32:33;0.50;;;0.32;;
25915;SDS011;13719;48.188;11.618;2022-08-19T13:35:19;0.75;;;0.70;;
25915;SDS011;13719;48.188;11.618;2022-08-19T13:37:47;0.32;;;0.25;;
25915;SDS011;13719;48.188;11.618;2022-08-19T13:40:17;0.10;;;0.10;;
25915;SDS011;13719;48.188;11.618;2022-08-19T13:42:50;0.98;;;0.38;;
25915;SDS011;13719;48.188;11.618;2022-08-19T13:45:20;0.85;;;0.40;;
25915;SDS011;13719;48.188;11.618;2022-08-19T13:47:49;0.28;;;0.28;;
25915;SDS011;13719;48.188;11.618;2022-08-19T13:50:26;0.60;;;0.40;;
25915;SDS011;13719;48.188;11.618;2022-08-19T13:52:55;0.75;;;0.30;;
25915;SDS011;13719;48.188;11.618;2022-08-19T13:55:24;0.75;;;0.35;;
25915;SDS011;13719;48.188;11.618;2022-08-19T13:57:55;0.32;;;0.30;;
25915;SDS011;13719;48.188;11.618;2022-08-19T14:00:24;0.38;;;0.38;;
25915;SDS011;13719;48.188;11.618;2022-08-19T14:02:54;0.45;;;0.45;;
25915;SDS011;13719;48.188;11.618;2022-08-19T14:05:24;0.82;;;0.75;;
25915;SDS011;13719;48.188;11.618;2022-08-19T14:07:53;0.50;;;0.50;;
25915;SDS011;13719;48.188;11.618;2022-08-19T14:10:22;0.77;;;0.47;;
25915;SDS011;13719;48.188;11.618;2022-08-19T14:12:53;0.73;;;0.50;;
25915;SDS011;13719;48.188;11.618;2022-08-19T14:15:23;0.75;;;0.63;;
25915;SDS011;13719;48.188;11.618;2022-08-19T14:17:52;0.40;;;0.40;;
25915;SDS011;13719;48.188;11.618;2022-08-19T14:20:22;1.75;;;0.45;;
25915;SDS011;13719;48.188;11.618;2022-08-19T14:22:51;1.83;;;1.00;;
25915;SDS011;13719;48.188;11.618;2022-08-19T14:25:21;1.00;;;0.50;;
25915;SDS011;13719;48.188;11.618;2022-08-19T14:27:50;1.27;;;0.65;;
25915;SDS011;13719;48.188;11.618;2022-08-19T14:30:20;1.25;;;0.63;;
25915;SDS011;13719;48.188;11.618;2022-08-19T14:32:50;1.30;;;0.60;;
25915;SDS011;13719;48.188;11.618;2022-08-19T14:35:20;0.90;;;0.60;;
25915;SDS011;13719;48.188;11.618;2022-08-19T14:37:50;0.63;;;0.40;;
25915;SDS011;13719;48.188;11.618;2022-08-19T14:40:22;1.88;;;0.70;;
25915;SDS011;13719;48.188;11.618;2022-08-19T14:42:52;1.33;;;0.70;;
25915;SDS011;13719;48.188;11.618;2022-08-19T14:45:26;1.65;;;0.82;;
25915;SDS011;13719;48.188;11.618;2022-08-19T14:47:56;0.57;;;0.57;;
25915;SDS011;13719;48.188;11.618;2022-08-19T14:50:25;0.82;;;0.65;;
25915;SDS011;13719;48.188;11.618;2022-08-19T14:52:58;1.48;;;0.70;;
25915;SDS011;13719;48.188;11.618;2022-08-19T14:55:31;1.00;;;0.60;;
25915;SDS011;13719;48.188;11.618;2022-08-19T14:58:00;0.73;;;0.50;;